Terminal Aerodrome Forecast
Issued by NWS Newport/Morehead City, NC

Home | Current Version | Previous Version | Text Only | Print | Product List | Glossary Off
Versions: 1 2 3 4 5 6 7 8 9 10 11 12 13 14 15 16

000
FTUS42 KMHX 171138
TAFEWN
TAF
KEWN 171138Z 1712/1812 00000KT P6SM SCT007 BKN100
     FM171300 VRB04KT P6SM SCT007 BKN030
     FM171800 22007KT P6SM SCT015 BKN100
     FM180600 23009KT P6SM VCSH SCT030 BKN060 WS020/25040KT=

USA.gov is the U.S. government's official web portal to all federal, state and local government web resources and services.